Time;durP1;ratioP1;P1;durP2;ratioP2;P2;SDS_P1;SDS_P2;PMS_P1;PMS_P2;Temp;Humidity;BMP_temperature;BMP_pressure;BME280_temperature;BME280_humidity;BME280_pressure;Samples;Min_cycle;Max_cycle;Signal;HPM_P1;HPM_P2
2023/10/31 00:02:07;;;;;;;30.63;9.43;;;;;;;9.09;100.00;100753.38;4926738;28;20134;-59
2023/10/31 00:04:38;;;;;;;23.33;9.02;;;;;;;9.13;100.00;100752.50;4916716;28;20352;-58
2023/10/31 00:07:08;;;;;;;22.20;8.82;;;;;;;9.17;100.00;100746.41;4926291;28;20079;-59
2023/10/31 00:09:40;;;;;;;21.75;8.27;;;;;;;9.30;100.00;100745.47;4916701;28;20397;-58
2023/10/31 00:12:11;;;;;;;22.27;8.55;;;;;;;9.21;100.00;100715.09;4926391;28;20588;-58
2023/10/31 00:14:41;;;;;;;21.38;8.88;;;;;;;9.46;100.00;100747.19;4916997;28;20138;-58
2023/10/31 00:17:12;;;;;;;19.27;8.48;;;;;;;9.55;100.00;100742.78;4926916;28;20065;-58
2023/10/31 00:19:42;;;;;;;20.35;7.82;;;;;;;9.62;100.00;100745.34;4920447;28;20063;-59
2023/10/31 00:22:12;;;;;;;22.15;8.10;;;;;;;9.72;100.00;100748.78;4930114;28;20055;-59
2023/10/31 00:24:44;;;;;;;27.75;9.55;;;;;;;9.88;100.00;100745.22;4919777;28;20047;-59
2023/10/31 00:27:15;;;;;;;18.50;7.72;;;;;;;10.06;100.00;100739.03;4936755;28;20477;-58
2023/10/31 00:29:45;;;;;;;36.78;9.88;;;;;;;10.22;100.00;100729.31;4949283;28;20440;-58
2023/10/31 00:32:16;;;;;;;29.73;8.77;;;;;;;10.33;100.00;100738.00;4941403;28;20065;-58
2023/10/31 00:34:46;;;;;;;26.38;9.48;;;;;;;10.21;100.00;100696.25;4948910;28;20054;-58
2023/10/31 00:37:17;;;;;;;30.75;9.90;;;;;;;10.45;100.00;100725.69;4933129;28;20059;-58
2023/10/31 00:39:49;;;;;;;34.63;10.30;;;;;;;10.49;100.00;100723.06;4929672;28;20059;-57
2023/10/31 00:42:19;;;;;;;44.38;10.43;;;;;;;10.48;100.00;100709.97;4918470;28;20078;-58
2023/10/31 00:44:49;;;;;;;35.08;11.50;;;;;;;10.55;100.00;100719.50;4927322;28;20141;-58
2023/10/31 00:47:20;;;;;;;52.88;17.25;;;;;;;10.64;100.00;100706.38;4919655;28;20083;-58
2023/10/31 00:49:52;;;;;;;51.85;20.20;;;;;;;10.70;100.00;100698.44;4929869;28;20059;-58
2023/10/31 00:52:23;;;;;;;26.77;10.80;;;;;;;10.87;100.00;100715.72;4919926;28;20236;-58
2023/10/31 00:54:55;;;;;;;34.22;10.68;;;;;;;10.92;100.00;100711.31;4929149;28;20735;-58
2023/10/31 00:57:25;;;;;;;30.85;10.00;;;;;;;11.01;100.00;100703.38;4919159;28;20097;-58
2023/10/31 00:59:56;;;;;;;38.72;10.95;;;;;;;10.99;100.00;100708.63;4929125;28;20059;-58
2023/10/31 01:02:26;;;;;;;51.17;11.30;;;;;;;11.06;100.00;100704.19;4919608;28;20086;-58
2023/10/31 01:04:57;;;;;;;53.38;11.80;;;;;;;11.02;100.00;100708.56;4929618;28;20058;-58
2023/10/31 01:07:27;;;;;;;47.78;12.20;;;;;;;11.00;100.00;100704.25;4919356;28;20066;-58
2023/10/31 01:09:59;;;;;;;47.47;11.07;;;;;;;11.08;100.00;100702.41;4929126;28;20607;-58
2023/10/31 01:12:30;;;;;;;37.33;10.07;;;;;;;11.21;100.00;100709.25;4919058;28;20090;-58
2023/10/31 01:15:01;;;;;;;38.53;10.52;;;;;;;11.40;100.00;100709.00;4929029;28;20058;-58
2023/10/31 01:17:31;;;;;;;33.83;9.50;;;;;;;11.61;100.00;100702.66;4919455;28;20047;-58
2023/10/31 01:20:02;;;;;;;30.27;9.30;;;;;;;11.75;100.00;100702.44;4929567;28;20082;-58
2023/10/31 01:22:32;;;;;;;45.33;10.85;;;;;;;11.66;100.00;100667.66;4919335;28;20066;-59
2023/10/31 01:25:05;;;;;;;27.08;9.23;;;;;;;11.90;100.00;100699.63;4928951;28;20047;-59
2023/10/31 01:27:35;;;;;;;31.95;8.98;;;;;;;11.95;100.00;100697.81;4919028;28;20056;-58
2023/10/31 01:30:06;;;;;;;44.28;10.45;;;;;;;12.08;100.00;100688.00;4926985;28;20074;-58
2023/10/31 01:32:37;;;;;;;43.85;10.73;;;;;;;12.06;100.00;100690.66;4919301;28;20591;-58
2023/10/31 01:35:08;;;;;;;47.78;11.30;;;;;;;12.07;100.00;100686.28;4928385;28;20051;-58
2023/10/31 01:37:38;;;;;;;36.05;9.25;;;;;;;12.01;100.00;100682.00;4918840;28;20066;-58
2023/10/31 01:40:14;;;;;;;36.47;11.02;;;;;;;11.93;100.00;100681.28;4927893;28;20066;-60
2023/10/31 01:42:44;;;;;;;36.90;9.52;;;;;;;11.94;100.00;100675.13;4918391;28;20050;-58
2023/10/31 01:45:15;;;;;;;36.67;9.27;;;;;;;11.93;100.00;100673.41;4923262;28;20553;-58
2023/10/31 01:47:50;;;;;;;29.95;8.63;;;;;;;11.91;100.00;100669.94;4926604;28;20819;-58
2023/10/31 01:50:21;;;;;;;32.85;10.90;;;;;;;11.90;100.00;100668.19;4918316;28;20884;-59
2023/10/31 01:52:51;;;;;;;37.78;13.45;;;;;;;11.94;100.00;100664.66;4928597;28;20055;-58
2023/10/31 01:55:27;;;;;;;37.50;11.35;;;;;;;12.02;100.00;100660.16;4918148;28;20081;-59
2023/10/31 01:57:58;;;;;;;25.38;7.97;;;;;;;12.15;100.00;100644.25;4928038;28;20142;-58
2023/10/31 02:00:28;;;;;;;35.03;10.45;;;;;;;12.37;99.51;100653.47;4918373;28;20177;-59
2023/10/31 02:03:00;;;;;;;24.67;8.35;;;;;;;12.54;98.55;100649.69;4928151;28;20061;-58
2023/10/31 02:05:32;;;;;;;27.75;8.57;;;;;;;12.72;97.79;100644.09;4918234;28;20055;-59
2023/10/31 02:08:02;;;;;;;22.40;8.30;;;;;;;12.84;96.90;100643.84;4928649;28;20478;-59
2023/10/31 02:10:34;;;;;;;24.50;8.07;;;;;;;12.91;95.55;100636.75;4899227;28;20055;-59
2023/10/31 02:13:12;;;;;;;21.08;8.25;;;;;;;12.93;95.40;100625.31;4926537;28;20192;-58
2023/10/31 02:15:43;;;;;;;27.55;8.63;;;;;;;13.06;94.85;100630.31;4917987;28;20062;-59
2023/10/31 02:18:14;;;;;;;22.60;8.80;;;;;;;13.02;94.28;100626.00;4928174;28;20342;-59
2023/10/31 02:20:44;;;;;;;25.88;8.93;;;;;;;13.08;94.25;100628.50;4918458;28;20050;-59
2023/10/31 02:23:17;;;;;;;28.70;9.75;;;;;;;13.14;94.52;100620.53;4924847;28;20047;-58
2023/10/31 02:25:47;;;;;;;19.58;8.52;;;;;;;13.16;93.93;100618.72;4927453;28;20134;-58
2023/10/31 02:28:18;;;;;;;23.38;8.27;;;;;;;13.12;94.20;100619.69;4898685;28;20047;-59
2023/10/31 02:30:48;;;;;;;28.42;8.82;;;;;;;13.03;94.40;100612.88;4908320;28;20059;-57
2023/10/31 02:33:19;;;;;;;28.00;8.25;;;;;;;13.05;94.26;100611.06;4902735;28;20150;-59
2023/10/31 02:35:49;;;;;;;23.88;8.15;;;;;;;13.05;94.34;100599.72;4927510;28;20058;-58
2023/10/31 02:38:21;;;;;;;19.73;8.63;;;;;;;13.08;94.16;100594.41;4917512;28;20047;-59
2023/10/31 02:40:52;;;;;;;22.75;8.98;;;;;;;12.98;93.99;100599.00;4927626;28;20493;-58
2023/10/31 02:43:22;;;;;;;34.58;9.70;;;;;;;12.87;94.17;100596.56;4917628;28;20597;-59
2023/10/31 02:45:53;;;;;;;26.27;9.38;;;;;;;12.85;95.04;100593.13;4927129;28;20047;-58
2023/10/31 02:48:23;;;;;;;25.52;8.82;;;;;;;12.85;95.40;100593.13;4917388;28;20143;-60
2023/10/31 02:50:54;;;;;;;27.52;9.23;;;;;;;12.87;95.51;100580.84;4927259;28;20141;-58
2023/10/31 02:53:26;;;;;;;27.45;9.13;;;;;;;12.85;95.63;100577.38;4917602;28;20133;-58
2023/10/31 02:55:56;;;;;;;30.30;9.60;;;;;;;12.92;96.02;100568.50;4927502;28;20051;-58
2023/10/31 02:58:27;;;;;;;27.45;10.68;;;;;;;12.90;96.19;100565.06;4917486;28;20070;-58
2023/10/31 03:00:57;;;;;;;31.27;9.65;;;;;;;12.97;96.00;100571.03;4927133;28;20046;-59
2023/10/31 03:03:28;;;;;;;30.20;9.48;;;;;;;12.97;95.55;100570.16;4917849;28;20141;-58
2023/10/31 03:05:58;;;;;;;25.02;9.85;;;;;;;12.93;95.53;100557.13;4927186;28;20055;-58
2023/10/31 03:08:30;;;;;;;26.63;10.73;;;;;;;12.95;95.91;100563.22;4917446;28;20066;-58
2023/10/31 03:11:01;;;;;;;29.30;10.13;;;;;;;12.98;96.30;100558.75;4927302;28;20656;-58
2023/10/31 03:13:31;;;;;;;34.88;10.57;;;;;;;13.01;95.89;100566.59;4917163;28;20187;-59
2023/10/31 03:16:01;;;;;;;28.02;10.68;;;;;;;13.15;95.06;100554.00;4926799;28;20106;-59
2023/10/31 03:18:32;;;;;;;24.45;9.75;;;;;;;13.33;95.32;100553.66;4917029;28;20082;-59
2023/10/31 03:21:02;;;;;;;26.85;9.38;;;;;;;13.50;94.10;100562.88;4926553;28;20087;-58
2023/10/31 03:23:34;;;;;;;23.30;9.88;;;;;;;13.59;92.98;100554.78;4917361;28;20391;-58
2023/10/31 03:26:05;;;;;;;27.23;9.80;;;;;;;13.69;91.83;100544.94;4925336;28;20059;-58
2023/10/31 03:28:36;;;;;;;36.80;10.80;;;;;;;13.66;91.74;100540.63;4936348;28;20639;-58
2023/10/31 03:31:06;;;;;;;36.50;11.50;;;;;;;13.64;91.76;100542.41;4945736;28;20593;-59
2023/10/31 03:33:36;;;;;;;30.80;10.52;;;;;;;13.71;91.96;100544.00;4936203;28;20050;-59
2023/10/31 03:36:08;;;;;;;33.55;11.07;;;;;;;13.45;91.70;100491.25;4945717;28;20047;-58
2023/10/31 03:38:40;;;;;;;28.13;10.63;;;;;;;13.70;91.13;100546.63;4936184;28;20079;-58
2023/10/31 03:41:10;;;;;;;31.98;10.30;;;;;;;13.68;91.45;100537.94;4946122;28;20077;-58
2023/10/31 03:43:41;;;;;;;30.80;10.20;;;;;;;13.61;91.46;100541.63;4935123;28;20047;-58
2023/10/31 03:46:12;;;;;;;28.47;10.67;;;;;;;13.61;91.66;100537.25;4945551;28;20074;-58
2023/10/31 03:48:44;;;;;;;36.67;10.10;;;;;;;13.61;91.27;100541.63;4936005;28;20282;-58
2023/10/31 03:51:14;;;;;;;25.97;9.93;;;;;;;13.63;91.54;100534.56;4944634;28;20294;-58
2023/10/31 03:53:46;;;;;;;21.33;10.47;;;;;;;13.63;90.84;100545.94;4948455;28;20277;-58
2023/10/31 03:56:17;;;;;;;24.88;10.55;;;;;;;13.58;90.74;100538.19;4937807;28;20622;-59
2023/10/31 03:58:47;;;;;;;29.90;11.00;;;;;;;13.55;90.34;100543.50;4930885;28;20066;-58
2023/10/31 04:01:17;;;;;;;26.90;10.70;;;;;;;13.50;90.35;100544.50;4920128;28;20047;-58
2023/10/31 04:03:48;;;;;;;22.43;11.13;;;;;;;13.46;90.47;100537.63;4930262;28;20310;-58
2023/10/31 04:06:18;;;;;;;28.23;11.43;;;;;;;13.48;90.68;100543.66;4920387;28;20294;-58
2023/10/31 04:08:50;;;;;;;29.00;11.27;;;;;;;13.49;90.65;100534.91;4930175;28;20055;-58
2023/10/31 04:11:21;;;;;;;27.13;10.90;;;;;;;13.50;91.03;100536.63;4920527;28;20603;-58
2023/10/31 04:13:51;;;;;;;33.70;12.40;;;;;;;13.49;91.30;100527.03;4930666;28;20279;-59
2023/10/31 04:16:21;;;;;;;26.33;10.70;;;;;;;13.55;91.46;100526.88;4920366;28;20059;-58
2023/10/31 04:18:52;;;;;;;33.05;11.80;;;;;;;13.61;91.00;100526.75;4930364;28;20287;-58
2023/10/31 04:21:22;;;;;;;35.22;12.55;;;;;;;13.66;90.51;100516.97;4920592;28;20079;-58
2023/10/31 04:23:54;;;;;;;25.33;13.10;;;;;;;13.73;89.57;100515.94;4929370;28;20054;-59
2023/10/31 04:26:24;;;;;;;28.80;11.68;;;;;;;13.76;89.37;100513.22;4924240;28;20622;-58
2023/10/31 04:28:55;;;;;;;25.08;11.65;;;;;;;13.81;89.45;100516.59;4948990;28;20122;-58
2023/10/31 04:31:25;;;;;;;30.85;12.30;;;;;;;13.82;88.99;100514.81;4939594;28;20047;-58
2023/10/31 04:34:10;;;;;;;27.30;12.80;;;;;;;13.89;88.64;100513.75;4948760;28;20137;-59
2023/10/31 04:36:40;;;;;;;29.03;11.83;;;;;;;13.93;88.17;100504.06;4939306;28;20377;-58
2023/10/31 04:39:12;;;;;;;23.63;10.90;;;;;;;13.94;88.05;100506.63;4948459;28;20304;-58
2023/10/31 04:41:42;;;;;;;26.73;11.83;;;;;;;13.93;88.27;100509.31;4938758;28;20293;-59
2023/10/31 04:44:13;;;;;;;34.83;11.73;;;;;;;13.93;88.52;100511.94;4949301;28;20309;-59
2023/10/31 04:46:43;;;;;;;29.47;12.47;;;;;;;13.96;88.13;100496.09;4938586;28;20282;-59
2023/10/31 04:49:14;;;;;;;27.60;12.53;;;;;;;14.02;87.74;100509.03;4948710;28;20317;-58
2023/10/31 04:51:44;;;;;;;30.60;12.30;;;;;;;14.01;87.90;100505.56;4938654;28;20292;-59
2023/10/31 04:54:16;;;;;;;26.73;12.20;;;;;;;14.04;88.05;100499.34;4944494;28;20282;-58
2023/10/31 04:56:48;;;;;;;31.25;12.95;;;;;;;14.03;87.94;100500.28;4942345;28;20812;-58
2023/10/31 04:59:19;;;;;;;32.90;12.80;;;;;;;14.02;87.35;100501.16;4916452;28;20141;-59
2023/10/31 05:01:52;;;;;;;36.10;13.87;;;;;;;14.00;86.29;100508.22;4929333;28;20857;-58
2023/10/31 05:04:22;;;;;;;40.00;15.00;;;;;;;13.98;85.62;100504.78;4919203;28;20370;-58
2023/10/31 05:06:53;;;;;;;27.83;14.13;;;;;;;13.98;85.08;100489.03;4928764;28;20279;-59
2023/10/31 05:09:25;;;;;;;31.53;13.97;;;;;;;13.98;84.80;100491.66;4918794;28;20312;-59
2023/10/31 05:11:56;;;;;;;29.43;12.83;;;;;;;13.96;85.22;100490.84;4928827;28;20761;-59
2023/10/31 05:14:26;;;;;;;31.23;13.63;;;;;;;13.94;85.24;100487.38;4919563;28;20302;-58
2023/10/31 05:16:56;;;;;;;29.13;13.37;;;;;;;13.92;85.63;100486.56;4929245;28;20322;-58
2023/10/31 05:19:27;;;;;;;31.43;14.17;;;;;;;13.89;85.28;100499.78;4919068;28;20287;-58
2023/10/31 05:21:57;;;;;;;38.47;14.37;;;;;;;13.81;85.15;100482.44;4928628;28;20279;-60
2023/10/31 05:24:29;;;;;;;27.83;13.47;;;;;;;13.82;85.17;100493.81;4917872;28;20281;-59
2023/10/31 05:27:00;;;;;;;32.77;14.20;;;;;;;13.78;85.77;100493.03;4937290;28;20305;-58
2023/10/31 05:29:30;;;;;;;39.20;15.13;;;;;;;13.68;85.94;100477.53;4928318;28;20667;-58
2023/10/31 05:32:01;;;;;;;32.72;14.55;;;;;;;13.74;86.22;100488.75;4929147;28;20302;-59
2023/10/31 05:34:31;;;;;;;34.17;14.20;;;;;;;13.72;85.98;100482.66;4918888;28;20570;-59
2023/10/31 05:37:02;;;;;;;33.27;14.70;;;;;;;13.67;86.06;100484.56;4927907;28;20141;-59
2023/10/31 05:39:36;;;;;;;37.13;15.47;;;;;;;13.61;86.22;100484.72;4918821;28;20403;-59
2023/10/31 05:42:07;;;;;;;36.13;15.43;;;;;;;13.55;86.32;100479.63;4928276;28;20844;-58
2023/10/31 05:44:37;;;;;;;33.80;15.07;;;;;;;13.60;86.40;100485.59;4918875;28;21144;-58
2023/10/31 05:47:07;;;;;;;34.72;15.77;;;;;;;13.60;86.43;100488.22;4928723;28;20830;-58
2023/10/31 05:49:38;;;;;;;32.27;16.00;;;;;;;13.62;86.34;100475.09;4918827;28;20510;-58
2023/10/31 05:52:08;;;;;;;36.50;15.38;;;;;;;13.63;86.34;100477.69;4927951;28;20275;-59
2023/10/31 05:54:40;;;;;;;35.23;15.07;;;;;;;13.62;86.34;100480.34;4918675;28;20066;-58
2023/10/31 05:57:11;;;;;;;33.00;15.43;;;;;;;13.59;86.30;100476.03;4919103;28;20309;-58
2023/10/31 05:59:41;;;;;;;34.60;15.97;;;;;;;13.53;86.66;100487.56;4899393;28;20299;-60
2023/10/31 06:02:12;;;;;;;37.33;15.90;;;;;;;13.47;86.79;100481.56;4909718;28;20287;-58
2023/10/31 06:04:42;;;;;;;38.30;15.53;;;;;;;13.44;86.84;100481.66;4899805;28;20294;-59
2023/10/31 06:07:13;;;;;;;35.53;15.50;;;;;;;13.40;87.04;100485.25;4914185;28;21017;-58
2023/10/31 06:09:45;;;;;;;38.17;16.53;;;;;;;13.33;87.45;100485.41;4918372;28;20743;-58
2023/10/31 06:12:15;;;;;;;29.67;15.03;;;;;;;13.30;87.34;100485.47;4922231;28;20379;-58
2023/10/31 06:14:46;;;;;;;32.63;15.77;;;;;;;13.25;87.66;100487.31;4927646;28;20279;-58
2023/10/31 06:17:16;;;;;;;34.00;15.83;;;;;;;13.21;87.87;100490.91;4918143;28;20660;-59
2023/10/31 06:19:47;;;;;;;37.50;16.93;;;;;;;13.13;87.94;100485.84;4928432;28;20291;-59
2023/10/31 06:22:17;;;;;;;34.60;16.27;;;;;;;13.08;88.22;100489.47;4917806;28;20307;-59
2023/10/31 06:24:49;;;;;;;38.08;16.35;;;;;;;13.03;88.37;100480.84;4927734;28;20439;-58
2023/10/31 06:27:20;;;;;;;34.28;16.38;;;;;;;12.96;88.55;100480.13;4919256;28;20059;-60
2023/10/31 06:29:50;;;;;;;31.23;14.50;;;;;;;12.92;89.00;100488.94;4927546;28;20057;-58
2023/10/31 06:32:40;;;;;;;34.92;15.35;;;;;;;12.86;89.12;100484.72;4909348;28;20482;-58
2023/10/31 06:35:11;;;;;;;40.03;15.85;;;;;;;12.78;89.35;100486.66;4927527;28;20047;-59
2023/10/31 06:37:41;;;;;;;36.28;16.13;;;;;;;12.71;89.97;100485.06;4917063;28;20122;-59
2023/10/31 06:40:14;;;;;;;33.63;15.50;;;;;;;12.63;90.35;100486.97;4927706;28;20146;-59
2023/10/31 06:42:44;;;;;;;41.60;17.00;;;;;;;12.56;90.83;100490.63;4917871;28;20086;-59
2023/10/31 06:45:14;;;;;;;38.80;16.77;;;;;;;12.47;91.25;100496.91;4926229;28;20055;-58
2023/10/31 06:47:45;;;;;;;38.67;15.65;;;;;;;12.40;91.84;100493.53;4927544;28;20382;-59
2023/10/31 06:50:15;;;;;;;42.28;18.05;;;;;;;12.31;91.96;100496.38;4921987;28;20087;-59
2023/10/31 06:52:49;;;;;;;41.60;17.02;;;;;;;12.22;92.06;100496.53;4923123;28;20056;-59
2023/10/31 06:55:21;;;;;;;40.67;17.20;;;;;;;12.13;92.29;100496.69;4916816;28;20055;-59
2023/10/31 06:57:51;;;;;;;37.08;18.30;;;;;;;12.04;92.19;100503.84;4927193;28;20087;-58
2023/10/31 07:00:22;;;;;;;37.65;17.27;;;;;;;11.89;92.07;100483.19;4917285;28;20557;-58
2023/10/31 07:02:53;;;;;;;43.70;17.85;;;;;;;11.80;91.87;100491.16;4926837;28;20141;-60
2023/10/31 07:05:23;;;;;;;42.83;18.15;;;;;;;11.75;91.71;100508.72;4915413;28;20109;-59
2023/10/31 07:07:53;;;;;;;40.78;17.60;;;;;;;11.65;91.83;100508.00;4927605;28;20090;-60
2023/10/31 07:10:25;;;;;;;36.13;17.33;;;;;;;11.56;92.15;100506.41;4916591;28;20062;-59
2023/10/31 07:12:56;;;;;;;42.22;18.88;;;;;;;11.44;92.41;100511.84;4920089;28;20043;-59
2023/10/31 07:15:26;;;;;;;44.03;19.30;;;;;;;11.37;92.46;100515.44;4917010;28;20219;-58
2023/10/31 07:17:57;;;;;;;39.25;19.15;;;;;;;11.28;92.33;100521.66;4926593;28;20133;-59
2023/10/31 07:20:27;;;;;;;51.45;20.67;;;;;;;11.22;92.61;100521.78;4912234;28;20169;-59
2023/10/31 07:22:58;;;;;;;45.42;20.05;;;;;;;11.04;93.48;100502.00;4927371;28;20492;-58
2023/10/31 07:25:30;;;;;;;38.88;19.08;;;;;;;11.08;95.11;100519.34;4913012;28;20047;-58
2023/10/31 07:28:00;;;;;;;44.25;20.08;;;;;;;11.04;96.66;100522.91;4915566;28;20055;-60
2023/10/31 07:30:31;;;;;;;45.05;19.67;;;;;;;10.98;97.65;100528.19;4907948;28;20079;-60
2023/10/31 07:33:01;;;;;;;50.22;20.20;;;;;;;10.90;98.42;100519.59;4915528;28;20342;-60
2023/10/31 07:35:32;;;;;;;47.42;20.02;;;;;;;10.83;99.46;100520.56;4912608;28;20477;-60
2023/10/31 07:38:02;;;;;;;59.22;19.83;;;;;;;10.74;100.00;100524.19;4921917;28;20047;-60
2023/10/31 07:40:34;;;;;;;50.22;20.58;;;;;;;10.69;100.00;100526.00;4912454;28;20110;-59
2023/10/31 07:43:04;;;;;;;45.35;20.02;;;;;;;10.62;100.00;100525.19;4922248;28;20059;-60
2023/10/31 07:45:36;;;;;;;39.60;18.08;;;;;;;10.59;100.00;100530.47;4912417;28;20055;-61
2023/10/31 07:48:06;;;;;;;46.17;20.30;;;;;;;10.58;100.00;100526.09;4921883;28;20067;-61
2023/10/31 07:50:37;;;;;;;40.88;18.95;;;;;;;10.58;100.00;100533.94;4912393;28;20063;-61
2023/10/31 07:56:05;;;;;;;51.13;19.77;;;;;;;10.41;100.00;100525.44;4920868;28;20051;-59
2023/10/31 07:58:36;;;;;;;57.40;19.77;;;;;;;10.35;100.00;100532.47;4909714;28;20055;-60
2023/10/31 08:01:10;;;;;;;50.45;18.73;;;;;;;10.30;100.00;100534.25;4921871;28;20054;-61
2023/10/31 08:03:40;;;;;;;52.50;20.30;;;;;;;10.25;100.00;100536.03;4912873;28;20154;-60
2023/10/31 08:06:13;;;;;;;44.20;18.83;;;;;;;10.21;100.00;100534.34;4922080;28;20100;-61
2023/10/31 08:08:43;;;;;;;47.05;19.85;;;;;;;10.17;100.00;100540.47;4912026;28;20101;-61
2023/10/31 08:11:15;;;;;;;38.20;17.25;;;;;;;10.13;100.00;100537.03;4922972;28;20051;-60
2023/10/31 08:13:46;;;;;;;41.03;18.65;;;;;;;10.10;100.00;100536.19;4912361;28;20138;-60
2023/10/31 08:16:20;;;;;;;50.88;19.55;;;;;;;9.84;100.00;100503.38;4910985;28;20158;-61
2023/10/31 08:18:51;;;;;;;39.40;17.83;;;;;;;10.01;100.00;100533.66;4921840;28;20110;-60
2023/10/31 08:21:21;;;;;;;41.00;18.83;;;;;;;9.94;100.00;100538.97;4912432;28;20051;-60
2023/10/31 08:23:51;;;;;;;47.00;19.52;;;;;;;9.91;100.00;100540.75;4921795;28;20066;-60
2023/10/31 08:26:23;;;;;;;43.22;18.40;;;;;;;9.88;100.00;100546.88;4911804;28;20047;-60
2023/10/31 08:28:54;;;;;;;48.17;19.13;;;;;;;9.81;100.00;100532.13;4922172;28;20505;-61
2023/10/31 08:31:24;;;;;;;36.05;16.63;;;;;;;9.85;100.00;100540.78;4912365;28;20142;-61
2023/10/31 08:33:55;;;;;;;39.45;18.08;;;;;;;9.84;100.00;100545.16;4921236;28;20097;-61
2023/10/31 08:36:25;;;;;;;46.90;17.95;;;;;;;9.77;100.00;100535.63;4912194;28;20063;-61
2023/10/31 08:38:55;;;;;;;40.42;18.17;;;;;;;9.82;100.00;100541.69;4922482;28;20147;-60
2023/10/31 08:41:27;;;;;;;40.03;18.58;;;;;;;9.84;100.00;100539.06;4915161;28;20490;-61
2023/10/31 08:43:58;;;;;;;40.25;18.23;;;;;;;9.82;100.00;100541.69;4923901;28;20062;-60
2023/10/31 08:46:28;;;;;;;42.83;18.35;;;;;;;9.77;100.00;100538.25;4914565;28;20106;-60
2023/10/31 08:48:59;;;;;;;43.10;18.77;;;;;;;9.75;100.00;100528.69;4922118;28;20117;-60
2023/10/31 08:51:29;;;;;;;45.17;19.48;;;;;;;9.72;100.00;100524.38;4913555;28;20170;-60
2023/10/31 08:54:00;;;;;;;46.47;19.02;;;;;;;9.70;100.00;100534.81;4924947;28;20055;-60
2023/10/31 08:56:32;;;;;;;44.63;19.08;;;;;;;9.66;100.00;100534.84;4914981;28;20059;-60
2023/10/31 08:59:02;;;;;;;41.90;18.23;;;;;;;9.63;100.00;100534.88;4924873;28;20146;-60
2023/10/31 09:01:33;;;;;;;43.90;18.90;;;;;;;9.59;100.00;100535.81;4915445;28;20055;-60
2023/10/31 09:04:03;;;;;;;34.97;17.25;;;;;;;9.58;100.00;100537.50;4924026;28;20099;-59
2023/10/31 09:06:34;;;;;;;41.83;18.77;;;;;;;9.54;100.00;100534.97;4915139;28;22902;-60
2023/10/31 09:09:05;;;;;;;44.30;19.33;;;;;;;9.50;100.00;100540.19;4924564;28;20055;-59
2023/10/31 09:11:37;;;;;;;38.13;18.52;;;;;;;9.42;100.00;100542.00;4915067;28;20263;-61
2023/10/31 09:14:08;;;;;;;49.50;20.70;;;;;;;9.36;100.00;100531.63;4925080;28;20162;-61
2023/10/31 09:16:38;;;;;;;46.15;22.45;;;;;;;9.33;100.00;100535.97;4914403;28;20062;-60
2023/10/31 09:19:09;;;;;;;45.60;19.70;;;;;;;9.28;100.00;100538.59;4927761;28;20125;-60
2023/10/31 09:21:39;;;;;;;41.08;20.55;;;;;;;9.22;100.00;100528.25;4918788;28;20114;-59
2023/10/31 09:24:11;;;;;;;46.45;21.38;;;;;;;9.19;100.00;100533.47;4928624;28;20509;-59
2023/10/31 09:26:45;;;;;;;51.60;22.65;;;;;;;9.14;100.00;100535.25;4921578;28;20061;-60
2023/10/31 09:29:16;;;;;;;52.42;22.67;;;;;;;9.05;100.00;100531.81;4920323;28;20055;-59
2023/10/31 09:31:58;;;;;;;64.43;25.92;;;;;;;9.04;100.00;100529.22;4928753;28;20122;-59
2023/10/31 09:34:29;;;;;;;58.38;25.10;;;;;;;8.97;100.00;100533.59;4918731;28;20051;-59
2023/10/31 09:37:00;;;;;;;50.80;24.98;;;;;;;8.91;100.00;100532.75;4928217;28;20118;-59
2023/10/31 09:39:30;;;;;;;64.38;25.35;;;;;;;8.87;100.00;100521.50;4918572;28;20061;-59
2023/10/31 09:42:03;;;;;;;55.63;26.50;;;;;;;8.86;100.00;100524.94;4928445;28;20055;-59
2023/10/31 09:44:34;;;;;;;58.83;27.13;;;;;;;8.85;100.00;100524.09;4919030;28;20122;-59
2023/10/31 09:47:04;;;;;;;73.15;28.67;;;;;;;8.82;100.00;100521.50;4928967;28;20110;-59
2023/10/31 09:49:35;;;;;;;62.45;28.20;;;;;;;8.83;100.00;100524.97;4916307;28;20060;-59
2023/10/31 09:52:07;;;;;;;59.53;28.85;;;;;;;8.83;100.00;100527.56;4927876;28;20517;-59
2023/10/31 09:54:40;;;;;;;62.88;30.02;;;;;;;8.80;100.00;100527.59;4918381;28;20054;-59
2023/10/31 09:57:14;;;;;;;68.30;29.17;;;;;;;8.81;100.00;100542.34;4928010;28;20055;-59
2023/10/31 09:59:45;;;;;;;70.80;30.50;;;;;;;8.80;100.00;100545.84;4929073;28;20082;-59
2023/10/31 10:02:15;;;;;;;71.82;32.45;;;;;;;8.80;100.00;100545.84;4943158;28;20493;-58
2023/10/31 10:04:46;;;;;;;70.72;32.70;;;;;;;8.78;100.00;100545.84;4947178;28;20068;-59
2023/10/31 10:07:18;;;;;;;76.75;32.40;;;;;;;8.74;100.00;100566.72;4937286;28;20057;-60
2023/10/31 10:09:48;;;;;;;59.63;27.88;;;;;;;8.74;100.00;100545.88;4946905;28;20065;-58
2023/10/31 10:12:20;;;;;;;59.63;28.40;;;;;;;8.69;100.00;100537.22;4936957;28;20057;-59
2023/10/31 10:14:52;;;;;;;60.13;29.40;;;;;;;8.53;100.00;100516.41;4935822;28;20063;-59
2023/10/31 10:17:24;;;;;;;64.97;29.45;;;;;;;8.54;100.00;100533.81;4898925;28;20426;-59
2023/10/31 10:20:08;;;;;;;62.47;29.10;;;;;;;8.20;100.00;100479.19;4909061;28;20059;-60
2023/10/31 10:22:40;;;;;;;69.50;32.08;;;;;;;8.55;100.00;100534.66;4906645;28;20051;-59
2023/10/31 10:25:11;;;;;;;65.72;31.30;;;;;;;8.57;100.00;100533.78;4934467;28;20129;-59
2023/10/31 10:27:43;;;;;;;65.22;30.42;;;;;;;8.52;100.00;100514.69;4925851;28;20052;-58
2023/10/31 10:30:15;;;;;;;71.47;32.30;;;;;;;8.64;100.00;100525.06;4931222;28;20063;-58
2023/10/31 10:32:46;;;;;;;85.90;35.53;;;;;;;8.66;100.00;100521.59;4925241;28;20496;-59
2023/10/31 10:35:17;;;;;;;69.35;34.33;;;;;;;8.58;100.00;100514.66;4930198;28;20050;-59
2023/10/31 10:37:48;;;;;;;86.60;33.05;;;;;;;8.46;100.00;100509.50;4930800;28;20070;-58
2023/10/31 10:40:19;;;;;;;64.70;31.67;;;;;;;8.38;100.00;100511.25;4928913;28;20158;-58
2023/10/31 10:42:57;;;;;;;71.25;31.67;;;;;;;8.30;100.00;100498.25;4929093;28;20057;-58
2023/10/31 10:45:28;;;;;;;77.60;35.38;;;;;;;8.34;100.00;100491.31;4918699;28;20114;-59
2023/10/31 10:48:03;;;;;;;72.30;32.67;;;;;;;8.35;100.00;100513.84;4924698;28;20063;-59
2023/10/31 10:50:36;;;;;;;65.10;31.35;;;;;;;8.27;100.00;100515.63;4906456;28;20056;-59
2023/10/31 10:53:18;;;;;;;62.00;29.83;;;;;;;8.23;100.00;100511.28;4918966;28;20059;-59
2023/10/31 10:55:52;;;;;;;63.42;31.15;;;;;;;8.16;100.00;100519.13;4916888;28;20047;-58
2023/10/31 10:58:32;;;;;;;62.58;29.58;;;;;;;8.14;100.00;100517.41;4917568;28;20059;-59
2023/10/31 11:01:05;;;;;;;63.70;29.55;;;;;;;8.07;100.00;100506.13;4926931;28;20055;-58
2023/10/31 11:03:36;;;;;;;62.13;28.13;;;;;;;7.91;100.00;100494.91;4917542;28;20051;-59
2023/10/31 11:06:08;;;;;;;70.47;30.85;;;;;;;7.89;100.00;100493.16;4926928;28;20051;-58
2023/10/31 11:08:39;;;;;;;66.80;27.33;;;;;;;7.84;100.00;100505.28;4917482;28;20116;-59
2023/10/31 11:11:10;;;;;;;74.70;33.13;;;;;;;7.81;100.00;100497.50;4927751;28;20043;-58
2023/10/31 11:13:44;;;;;;;78.75;31.05;;;;;;;7.77;100.00;100497.50;4916892;28;20143;-59
2023/10/31 11:16:23;;;;;;;62.25;29.45;;;;;;;7.75;100.00;100494.03;4941575;28;20516;-59
2023/10/31 11:18:55;;;;;;;65.40;33.85;;;;;;;7.66;100.00;100490.56;4945875;28;20608;-59
2023/10/31 11:21:25;;;;;;;86.03;43.67;;;;;;;7.55;100.00;100495.78;4935899;28;20069;-58
2023/10/31 11:24:00;;;;;;;78.82;41.08;;;;;;;7.43;100.00;100480.19;4945884;28;20065;-58
2023/10/31 11:26:32;;;;;;;88.93;39.92;;;;;;;7.47;100.00;100502.72;4931495;28;20137;-59
2023/10/31 11:29:08;;;;;;;77.07;37.05;;;;;;;7.35;100.00;100478.44;4946480;28;20060;-59
2023/10/31 11:31:39;;;;;;;81.30;37.05;;;;;;;7.48;100.00;100509.66;4936066;28;20244;-59